Time;durP1;ratioP1;P1;durP2;ratioP2;P2;SDS_P1;SDS_P2;PMS_P1;PMS_P2;Temp;Humidity;BMP_temperature;BMP_pressure;BME280_temperature;BME280_humidity;BME280_pressure;Samples;Min_cycle;Max_cycle;Signal;HPM_P1;HPM_P2
2022/10/15 00:01:32;;;;;;;2.40;2.20;;;20.20;49.90;;;;;;5133327;28;20051;-10
2022/10/15 00:03:59;;;;;;;2.40;2.20;;;20.20;49.90;;;;;;5133709;28;20153;-10
2022/10/15 00:06:25;;;;;;;2.40;2.20;;;20.20;49.90;;;;;;5135769;27;20051;-10
2022/10/15 00:08:50;;;;;;;2.53;2.33;;;20.10;49.90;;;;;;5136889;28;20062;-10
2022/10/15 00:11:18;;;;;;;2.80;2.45;;;20.10;50.00;;;;;;5137028;28;20069;-10
2022/10/15 00:13:44;;;;;;;2.88;2.53;;;20.20;50.00;;;;;;5137318;28;20470;-11
2022/10/15 00:16:14;;;;;;;2.83;2.33;;;20.10;50.00;;;;;;5137112;28;20047;-10
2022/10/15 00:18:41;;;;;;;2.30;2.10;;;20.20;50.00;;;;;;5136824;28;20039;-10
2022/10/15 00:21:10;;;;;;;2.47;2.28;;;20.10;50.00;;;;;;5136896;28;20525;-10
2022/10/15 00:23:36;;;;;;;2.53;2.33;;;20.10;50.00;;;;;;5136842;28;20055;-10
2022/10/15 00:26:08;;;;;;;2.30;2.10;;;20.10;50.00;;;;;;5137074;28;20059;-10
2022/10/15 00:28:34;;;;;;;2.42;2.22;;;20.10;50.00;;;;;;5136395;28;20498;-10
2022/10/15 00:31:05;;;;;;;2.40;2.20;;;20.10;50.00;;;;;;5136669;28;20053;-10
2022/10/15 00:33:30;;;;;;;2.25;2.05;;;20.10;50.00;;;;;;5136670;28;20049;-10
2022/10/15 00:36:02;;;;;;;2.42;2.22;;;20.10;50.00;;;;;;5136589;28;20055;-10
2022/10/15 00:38:27;;;;;;;;;;;20.10;50.00;;;;;;5137375;28;20039;-11
2022/10/15 00:40:53;;;;;;;2.47;1.85;;;20.10;50.00;;;;;;5136373;28;19926;-10
2022/10/15 00:43:42;;;;;;;2.38;2.20;;;20.10;50.00;;;;;;5137066;28;20076;-10
2022/10/15 00:46:23;;;;;;;2.28;2.08;;;20.10;50.00;;;;;;5117173;28;20055;-10
2022/10/15 00:48:56;;;;;;;2.50;2.15;;;20.10;50.00;;;;;;5136217;28;20051;-11
2022/10/15 00:51:25;;;;;;;2.50;2.30;;;20.10;50.00;;;;;;5136695;28;20051;-10
2022/10/15 00:53:51;;;;;;;2.40;2.20;;;20.10;50.00;;;;;;5136865;28;20073;-10
2022/10/15 00:56:20;;;;;;;2.35;2.15;;;20.10;49.90;;;;;;5136589;28;20059;-11
2022/10/15 00:58:47;;;;;;;2.45;2.25;;;20.10;50.00;;;;;;5136593;28;20053;-10
2022/10/15 01:01:12;;;;;;;2.53;2.33;;;20.20;50.00;;;;;;5136600;28;20047;-10
2022/10/15 01:03:38;;;;;;;2.58;2.38;;;20.10;50.00;;;;;;5117613;28;20051;-10
2022/10/15 01:06:04;;;;;;;2.35;2.15;;;20.10;50.10;;;;;;5136166;28;20050;-10
2022/10/15 01:08:32;;;;;;;2.40;2.20;;;20.10;50.00;;;;;;5136309;28;20478;-10
2022/10/15 01:11:34;;;;;;;2.60;2.40;;;20.10;50.00;;;;;;5136010;28;20111;-10
2022/10/15 01:14:36;;;;;;;2.72;2.35;;;20.10;50.00;;;;;;5136211;28;20063;-10
2022/10/15 01:17:19;;;;;;;2.58;2.35;;;20.10;49.90;;;;;;5135173;27;20469;-10
2022/10/15 01:20:12;;;;;;;2.30;2.10;;;20.10;50.00;;;;;;5136187;28;20058;-10
2022/10/15 01:23:02;;;;;;;2.17;1.98;;;20.10;50.00;;;;;;5136081;28;20099;-10
2022/10/15 01:25:45;;;;;;;2.50;2.30;;;20.10;50.00;;;;;;5117625;28;20146;-10
2022/10/15 01:28:37;;;;;;;2.40;2.20;;;20.20;49.90;;;;;;5135394;28;20047;-10
2022/10/15 01:31:24;;;;;;;2.53;2.33;;;20.20;49.90;;;;;;5136210;28;20047;-10
2022/10/15 01:34:12;;;;;;;2.60;2.00;;;20.10;49.90;;;;;;5117164;28;20051;-10
2022/10/15 01:36:57;;;;;;;2.78;2.33;;;20.10;50.00;;;;;;5136017;28;20039;-10
2022/10/15 01:39:29;;;;;;;2.90;2.15;;;20.10;50.00;;;;;;5135714;28;20046;-10
2022/10/15 01:42:06;;;;;;;2.22;2.00;;;20.10;50.00;;;;;;5135208;28;20078;-10
2022/10/15 01:44:43;;;;;;;2.30;2.10;;;20.10;50.00;;;;;;5117390;28;20047;-10
2022/10/15 01:47:33;;;;;;;2.17;1.98;;;20.10;50.00;;;;;;5116493;28;20067;-11
2022/10/15 01:50:03;;;;;;;2.72;2.30;;;20.10;50.00;;;;;;5116993;28;20043;-10
2022/10/15 01:52:35;;;;;;;3.13;2.33;;;20.10;50.00;;;;;;5116981;28;20093;-10
2022/10/15 01:55:05;;;;;;;1.70;1.60;;;20.10;50.00;;;;;;5116061;28;20069;-10
2022/10/15 01:57:35;;;;;;;2.20;2.00;;;20.10;50.00;;;;;;5116155;28;20051;-10
2022/10/15 02:00:03;;;;;;;2.25;2.05;;;20.20;50.00;;;;;;5117375;28;20475;-10
2022/10/15 02:02:38;;;;;;;2.45;2.25;;;20.10;50.00;;;;;;5135354;28;20542;-10
2022/10/15 02:05:12;;;;;;;2.78;2.28;;;20.10;50.00;;;;;;5116695;28;20054;-10
2022/10/15 02:08:18;;;;;;;2.30;2.10;;;20.10;50.00;;;;;;5135179;28;20066;-11
2022/10/15 02:10:57;;;;;;;2.17;2.08;;;20.10;49.90;;;;;;5116641;28;20047;-10
2022/10/15 02:13:38;;;;;;;2.10;1.92;;;20.10;50.00;;;;;;5135744;28;20063;-10
2022/10/15 02:16:19;;;;;;;2.05;1.90;;;20.10;49.90;;;;;;5116656;28;20058;-10
2022/10/15 02:19:09;;;;;;;1.98;1.77;;;20.10;49.90;;;;;;5134517;28;20558;-10
2022/10/15 02:21:41;;;;;;;2.20;2.00;;;20.10;49.90;;;;;;5135557;28;20054;-10
2022/10/15 02:24:22;;;;;;;2.13;1.95;;;20.10;50.00;;;;;;5134888;28;20051;-10
2022/10/15 02:26:51;;;;;;;2.35;2.15;;;20.10;49.80;;;;;;5134714;28;20047;-10
2022/10/15 02:29:20;;;;;;;2.00;1.85;;;20.10;50.00;;;;;;5133586;27;20058;-10
2022/10/15 02:31:48;;;;;;;2.30;2.10;;;20.10;50.00;;;;;;5116256;28;20510;-10
2022/10/15 02:34:18;;;;;;;2.78;1.92;;;20.00;50.00;;;;;;5116253;28;20047;-10
2022/10/15 02:36:45;;;;;;;2.38;2.17;;;20.10;50.00;;;;;;5116879;28;20058;-10
2022/10/15 02:39:14;;;;;;;2.08;1.88;;;20.10;50.00;;;;;;5115084;28;20162;-10
2022/10/15 02:41:42;;;;;;;2.08;1.88;;;20.10;50.00;;;;;;5134820;28;20063;-11
2022/10/15 02:44:11;;;;;;;2.00;1.90;;;20.10;50.00;;;;;;5116147;28;20105;-10
2022/10/15 02:46:37;;;;;;;2.28;2.08;;;20.10;50.00;;;;;;5114361;28;20449;-10
2022/10/15 02:49:02;;;;;;;2.70;2.50;;;20.10;50.00;;;;;;5134456;28;20100;-10
2022/10/15 02:51:31;;;;;;;2.25;2.05;;;20.10;49.90;;;;;;5115969;28;20406;-10
2022/10/15 02:53:58;;;;;;;1.98;1.88;;;20.10;50.50;;;;;;5115888;28;20382;-10
2022/10/15 02:56:25;;;;;;;1.92;1.80;;;20.10;50.00;;;;;;5116251;28;20060;-10
2022/10/15 02:58:50;;;;;;;2.60;2.00;;;20.10;50.00;;;;;;5134624;28;20432;-10
2022/10/15 03:01:17;;;;;;;2.22;2.00;;;20.10;49.90;;;;;;5115976;28;20058;-10
2022/10/15 03:03:43;;;;;;;2.10;1.90;;;20.10;49.90;;;;;;5134325;28;20406;-10
2022/10/15 03:06:09;;;;;;;2.13;1.92;;;20.10;49.90;;;;;;5115675;28;20440;-11
2022/10/15 03:08:35;;;;;;;2.30;2.03;;;20.10;50.00;;;;;;5115998;28;20039;-10
2022/10/15 03:11:02;;;;;;;2.30;2.10;;;20.10;50.00;;;;;;5115668;28;20521;-10
2022/10/15 03:13:28;;;;;;;2.13;1.95;;;20.10;50.00;;;;;;5114378;28;20047;-10
2022/10/15 03:15:54;;;;;;;2.25;2.05;;;20.10;50.00;;;;;;5115662;28;20444;-10
2022/10/15 03:18:21;;;;;;;2.47;1.95;;;20.10;50.50;;;;;;5115555;28;20053;-10
2022/10/15 03:20:54;;;;;;;2.38;2.13;;;20.10;50.00;;;;;;5115519;28;20491;-10
2022/10/15 03:23:20;;;;;;;2.28;1.95;;;20.10;50.00;;;;;;5115535;28;20059;-10
2022/10/15 03:25:46;;;;;;;3.58;2.00;;;20.10;50.00;;;;;;5133885;28;20051;-10
2022/10/15 03:28:17;;;;;;;1.90;1.63;;;20.10;50.00;;;;;;5114742;28;20138;-10
2022/10/15 03:30:43;;;;;;;1.90;1.77;;;20.10;50.20;;;;;;5115396;28;20713;-10
2022/10/15 03:33:09;;;;;;;1.83;1.70;;;20.10;49.90;;;;;;5115962;28;20448;-10
2022/10/15 03:35:36;;;;;;;2.17;1.98;;;20.10;49.90;;;;;;5133794;28;20063;-10
2022/10/15 03:38:03;;;;;;;1.90;1.80;;;20.10;49.90;;;;;;5115159;28;20043;-10
2022/10/15 03:40:29;;;;;;;2.30;2.08;;;20.10;49.90;;;;;;5115220;28;20150;-10
2022/10/15 03:43:03;;;;;;;2.42;2.22;;;20.10;50.00;;;;;;5115620;28;20055;-10
2022/10/15 03:45:33;;;;;;;2.20;2.00;;;20.10;50.00;;;;;;5133568;28;20421;-10
2022/10/15 03:48:12;;;;;;;2.38;2.05;;;20.10;50.00;;;;;;5113214;28;20094;-10
2022/10/15 03:50:38;;;;;;;2.40;2.15;;;20.10;50.00;;;;;;5115136;28;20078;-10
2022/10/15 03:53:04;;;;;;;2.50;2.10;;;20.10;50.00;;;;;;5115656;28;20078;-10
2022/10/15 03:55:30;;;;;;;2.08;1.88;;;20.10;49.90;;;;;;5115083;28;20125;-10
2022/10/15 03:57:56;;;;;;;2.25;2.05;;;20.10;49.90;;;;;;5133343;28;20055;-11
2022/10/15 04:00:21;;;;;;;2.28;2.03;;;20.10;50.00;;;;;;5115599;28;20047;-10
2022/10/15 04:02:48;;;;;;;2.10;2.00;;;20.10;50.00;;;;;;5115012;28;20043;-10
2022/10/15 04:05:23;;;;;;;1.90;1.80;;;20.10;50.10;;;;;;5133704;28;20410;-10
2022/10/15 04:07:53;;;;;;;2.50;2.30;;;20.10;50.10;;;;;;5114594;28;20674;-11
2022/10/15 04:10:20;;;;;;;2.35;2.15;;;20.10;50.20;;;;;;5115014;28;20146;-10
2022/10/15 04:12:46;;;;;;;2.78;2.00;;;20.10;50.30;;;;;;5113351;28;20134;-10
2022/10/15 04:15:15;;;;;;;2.25;2.05;;;20.10;50.60;;;;;;5115195;28;20051;-10
2022/10/15 04:17:48;;;;;;;2.05;1.80;;;20.10;50.40;;;;;;5115267;28;20130;-11
2022/10/15 04:20:14;;;;;;;1.80;1.70;;;20.00;50.40;;;;;;5112695;28;20440;-10
2022/10/15 04:22:42;;;;;;;2.33;2.13;;;20.00;50.50;;;;;;5114988;28;20133;-10
2022/10/15 04:25:08;;;;;;;2.40;2.20;;;20.00;50.60;;;;;;5114691;28;20177;-10
2022/10/15 04:27:34;;;;;;;2.33;2.00;;;20.10;50.60;;;;;;5113175;28;20506;-10
2022/10/15 04:30:07;;;;;;;2.42;2.08;;;20.10;50.60;;;;;;5115252;28;20051;-10
2022/10/15 04:32:34;;;;;;;2.10;1.90;;;20.10;50.60;;;;;;5113012;28;20056;-10
2022/10/15 04:34:59;;;;;;;2.13;1.92;;;20.10;50.60;;;;;;5115137;28;20058;-10
2022/10/15 04:37:44;;;;;;;2.88;1.95;;;20.10;50.70;;;;;;5114762;28;20043;-11
2022/10/15 04:40:10;;;;;;;2.05;1.90;;;20.10;50.60;;;;;;5132966;28;20480;-10
2022/10/15 04:42:36;;;;;;;2.47;2.28;;;20.20;50.80;;;;;;5114855;28;20054;-10
2022/10/15 04:45:02;;;;;;;2.25;2.03;;;20.10;50.90;;;;;;5114303;28;20047;-10
2022/10/15 04:47:28;;;;;;;2.40;1.95;;;20.10;50.90;;;;;;5114398;28;20188;-10
2022/10/15 04:50:05;;;;;;;2.25;2.00;;;20.10;51.40;;;;;;5115140;28;20048;-10
2022/10/15 04:52:49;;;;;;;2.53;2.33;;;20.10;50.90;;;;;;5136359;28;20115;-10
2022/10/15 04:55:16;;;;;;;2.25;2.05;;;20.10;50.90;;;;;;5117850;28;20058;-10
2022/10/15 04:57:42;;;;;;;2.10;1.90;;;20.10;50.90;;;;;;5136205;28;20434;-10
2022/10/15 05:00:08;;;;;;;2.22;1.75;;;20.10;50.90;;;;;;5136802;28;20054;-10
2022/10/15 05:02:56;;;;;;;2.83;2.10;;;20.10;50.80;;;;;;5136008;28;20103;-10
2022/10/15 05:05:32;;;;;;;2.60;2.13;;;20.10;50.80;;;;;;5117692;28;20146;-10
2022/10/15 05:08:03;;;;;;;2.25;1.85;;;20.20;50.90;;;;;;5117563;28;20085;-11
2022/10/15 05:10:32;;;;;;;;;;;20.10;50.90;;;;;;5118126;28;20077;-10
2022/10/15 05:13:02;;;;;;;2.20;2.00;;;20.10;50.90;;;;;;5135977;28;19915;-10
2022/10/15 05:15:31;;;;;;;2.38;2.17;;;20.10;50.90;;;;;;5117516;28;20507;-11
2022/10/15 05:17:57;;;;;;;1.95;1.77;;;20.10;50.90;;;;;;5116204;28;20078;-11
2022/10/15 05:20:29;;;;;;;1.90;1.80;;;20.10;50.90;;;;;;5101895;28;20051;-10
2022/10/15 05:22:54;;;;;;;2.22;2.03;;;20.10;50.90;;;;;;5116394;28;20052;-11
2022/10/15 05:25:20;;;;;;;1.88;1.77;;;20.10;50.80;;;;;;5117724;28;20047;-10
2022/10/15 05:27:47;;;;;;;1.90;1.80;;;20.10;50.80;;;;;;5135713;28;20059;-11
2022/10/15 05:30:13;;;;;;;3.47;2.00;;;20.10;50.80;;;;;;5117368;28;20548;-10
2022/10/15 05:32:51;;;;;;;2.95;2.05;;;20.10;50.90;;;;;;5116739;28;20059;-10
2022/10/15 05:35:18;;;;;;;1.90;1.80;;;20.10;51.00;;;;;;5117212;28;20067;-10
2022/10/15 05:37:52;;;;;;;2.20;2.00;;;20.10;51.00;;;;;;5115227;28;20043;-10
2022/10/15 05:40:18;;;;;;;1.70;1.55;;;20.10;50.90;;;;;;5117372;28;20656;-10
2022/10/15 05:42:55;;;;;;;2.22;2.05;;;20.10;51.00;;;;;;5117733;28;20055;-10
2022/10/15 05:45:21;;;;;;;2.17;1.90;;;20.10;51.00;;;;;;5135510;28;20122;-10
2022/10/15 05:47:46;;;;;;;1.77;1.67;;;20.10;51.00;;;;;;5116949;28;20086;-11
2022/10/15 05:50:15;;;;;;;2.10;1.90;;;20.10;51.00;;;;;;5117450;28;20047;-10
2022/10/15 05:52:44;;;;;;;2.25;2.00;;;20.10;51.00;;;;;;5116923;28;20050;-10
2022/10/15 05:55:22;;;;;;;2.60;2.20;;;20.10;51.00;;;;;;5116591;28;20505;-10
2022/10/15 05:57:48;;;;;;;1.95;1.83;;;20.10;50.90;;;;;;5135442;28;20047;-10
2022/10/15 06:00:14;;;;;;;1.98;1.77;;;20.00;51.00;;;;;;5135174;28;20047;-10
2022/10/15 06:02:39;;;;;;;1.92;1.83;;;20.00;51.00;;;;;;5134336;27;20058;-10
2022/10/15 06:05:05;;;;;;;1.60;1.50;;;20.00;51.10;;;;;;5134821;28;20058;-10
2022/10/15 06:07:31;;;;;;;2.10;1.90;;;20.00;51.10;;;;;;5135299;28;20127;-10
2022/10/15 06:10:04;;;;;;;2.40;2.20;;;20.10;51.10;;;;;;5134967;28;20055;-10
2022/10/15 06:12:32;;;;;;;2.30;2.10;;;20.10;51.10;;;;;;5134921;28;20055;-10
2022/10/15 06:14:58;;;;;;;2.03;1.90;;;20.00;51.10;;;;;;5135052;28;20197;-10
2022/10/15 06:17:24;;;;;;;2.03;1.80;;;20.00;51.00;;;;;;5134777;28;20051;-10
2022/10/15 06:19:49;;;;;;;2.15;1.95;;;20.10;51.10;;;;;;5134739;28;20051;-10
2022/10/15 06:22:15;;;;;;;2.08;1.88;;;20.10;51.10;;;;;;5134821;28;20043;-10
2022/10/15 06:24:40;;;;;;;2.00;1.80;;;20.10;51.10;;;;;;5134614;28;20066;-10
2022/10/15 06:27:08;;;;;;;2.40;2.20;;;20.10;51.00;;;;;;5134532;28;20112;-10
2022/10/15 06:29:34;;;;;;;2.00;1.90;;;20.10;51.00;;;;;;5134657;28;20085;-10
2022/10/15 06:32:00;;;;;;;1.75;1.65;;;20.10;51.10;;;;;;5134576;28;20079;-10
2022/10/15 06:34:26;;;;;;;2.20;1.92;;;20.10;51.00;;;;;;5134568;28;20104;-10
2022/10/15 06:36:52;;;;;;;2.90;2.08;;;20.10;51.10;;;;;;5134656;28;20055;-10
2022/10/15 06:39:18;;;;;;;1.77;1.67;;;20.10;51.10;;;;;;5134398;28;20057;-10
2022/10/15 06:41:43;;;;;;;1.90;1.70;;;20.10;51.00;;;;;;5116387;28;20392;-10
2022/10/15 06:44:09;;;;;;;2.17;1.98;;;20.10;51.00;;;;;;5134367;28;20146;-11
2022/10/15 06:46:36;;;;;;;1.75;1.65;;;20.10;50.90;;;;;;5134729;28;20051;-10
2022/10/15 06:49:02;;;;;;;2.20;2.00;;;20.20;51.00;;;;;;5134087;28;20055;-10
2022/10/15 06:51:27;;;;;;;1.92;1.80;;;20.20;50.90;;;;;;5134296;28;20451;-10
2022/10/15 06:53:53;;;;;;;2.15;1.95;;;20.20;50.80;;;;;;5134470;28;20047;-10
2022/10/15 06:56:19;;;;;;;1.88;1.75;;;20.20;50.90;;;;;;5134546;28;20394;-10
2022/10/15 06:58:44;;;;;;;1.88;1.77;;;20.20;51.50;;;;;;5134154;28;20043;-11
2022/10/15 07:01:10;;;;;;;2.00;1.90;;;20.10;50.90;;;;;;5134540;28;20058;-10
2022/10/15 07:03:37;;;;;;;2.03;1.85;;;20.10;51.00;;;;;;5134276;28;20058;-10
2022/10/15 07:06:06;;;;;;;2.10;1.90;;;20.20;51.00;;;;;;5134707;28;20126;-10
2022/10/15 07:08:32;;;;;;;1.80;1.70;;;20.20;50.90;;;;;;5134152;28;20043;-10
2022/10/15 07:11:01;;;;;;;2.65;1.90;;;20.20;51.00;;;;;;5134166;28;20407;-10
2022/10/15 07:13:28;;;;;;;2.17;1.98;;;20.20;51.00;;;;;;5134053;28;20047;-15
2022/10/15 07:15:54;;;;;;;1.92;1.80;;;20.20;50.90;;;;;;5133521;27;20058;-10
2022/10/15 07:18:21;;;;;;;3.17;2.10;;;20.20;50.90;;;;;;5134217;28;20051;-10
2022/10/15 07:20:46;;;;;;;2.13;1.92;;;20.20;50.90;;;;;;5133857;28;20161;-10
2022/10/15 07:23:12;;;;;;;2.30;2.05;;;20.20;50.90;;;;;;5134308;28;20051;-10
2022/10/15 07:25:38;;;;;;;2.38;1.90;;;20.20;51.00;;;;;;5133997;28;20063;-10
2022/10/15 07:28:04;;;;;;;2.15;1.95;;;20.20;51.00;;;;;;5133743;28;20051;-10
2022/10/15 07:30:30;;;;;;;2.08;1.88;;;20.20;51.10;;;;;;5133855;28;20047;-11
2022/10/15 07:32:59;;;;;;;2.05;1.77;;;20.10;51.00;;;;;;5133839;28;20490;-10
2022/10/15 07:35:26;;;;;;;2.10;1.90;;;20.20;51.00;;;;;;5133990;28;20051;-10
2022/10/15 07:37:51;;;;;;;2.10;2.00;;;20.20;50.90;;;;;;5133203;28;20051;-11
2022/10/15 07:40:17;;;;;;;1.95;1.75;;;20.20;50.90;;;;;;5134065;28;20059;-10
2022/10/15 07:42:43;;;;;;;1.90;1.80;;;20.20;50.90;;;;;;5133564;28;20078;-10
2022/10/15 07:45:09;;;;;;;2.28;2.08;;;20.30;50.80;;;;;;5133376;28;20092;-10
2022/10/15 07:47:35;;;;;;;2.53;2.10;;;20.30;50.70;;;;;;5133657;28;20047;-10
2022/10/15 07:50:00;;;;;;;2.38;2.17;;;20.30;50.70;;;;;;5133451;28;20047;-10
2022/10/15 07:52:26;;;;;;;1.80;1.70;;;20.30;50.70;;;;;;5133335;28;20126;-10
2022/10/15 07:54:51;;;;;;;1.77;1.60;;;20.40;50.70;;;;;;5133309;28;20459;-10
2022/10/15 07:57:19;;;;;;;1.80;1.70;;;20.30;50.70;;;;;;5133756;28;20047;-10
2022/10/15 07:59:46;;;;;;;1.80;1.70;;;20.30;50.70;;;;;;5133444;28;20078;-10
2022/10/15 08:02:15;;;;;;;1.77;1.67;;;20.40;50.70;;;;;;5133292;28;20047;-10
2022/10/15 08:04:41;;;;;;;1.70;1.60;;;20.30;50.70;;;;;;5133282;28;20086;-10
2022/10/15 08:07:06;;;;;;;2.17;1.98;;;20.40;50.60;;;;;;5113598;28;20051;-10
2022/10/15 08:09:32;;;;;;;2.05;1.90;;;20.40;50.60;;;;;;5133174;28;20096;-10
2022/10/15 08:11:57;;;;;;;1.90;1.63;;;20.40;50.60;;;;;;5133474;28;20055;-10
2022/10/15 08:14:23;;;;;;;1.95;1.85;;;20.40;50.50;;;;;;5132927;28;20142;-10
2022/10/15 08:16:48;;;;;;;1.90;1.75;;;20.40;50.40;;;;;;5133228;28;20054;-10
2022/10/15 08:19:16;;;;;;;2.00;1.90;;;20.50;50.40;;;;;;5133131;28;20047;-10
2022/10/15 08:21:43;;;;;;;1.83;1.70;;;20.50;50.30;;;;;;5133069;28;20047;-10
2022/10/15 08:24:09;;;;;;;2.20;2.00;;;20.60;50.20;;;;;;5133686;28;20059;-10
2022/10/15 08:26:35;;;;;;;2.03;1.67;;;20.50;50.30;;;;;;5134746;27;20070;-10
2022/10/15 08:29:00;;;;;;;1.85;1.75;;;20.50;50.20;;;;;;5136605;28;20051;-10
2022/10/15 08:31:26;;;;;;;2.28;2.08;;;20.60;50.20;;;;;;5136512;28;20054;-10
2022/10/15 08:33:52;;;;;;;2.17;1.85;;;20.60;50.20;;;;;;5136725;28;20111;-10
2022/10/15 08:36:17;;;;;;;2.08;1.90;;;20.50;50.20;;;;;;5136809;28;20543;-10
2022/10/15 08:38:43;;;;;;;2.28;2.08;;;20.50;50.20;;;;;;5137023;28;20053;-10
2022/10/15 08:41:25;;;;;;;2.13;1.92;;;20.40;50.40;;;;;;5136644;28;20094;-10
2022/10/15 08:43:51;;;;;;;2.10;1.90;;;20.40;50.40;;;;;;5136940;28;20046;-10
2022/10/15 08:46:34;;;;;;;1.92;1.83;;;20.50;51.00;;;;;;5136405;28;20047;-10
2022/10/15 08:49:00;;;;;;;2.30;2.10;;;20.40;50.50;;;;;;5136535;28;20043;-10
2022/10/15 08:51:37;;;;;;;2.15;1.90;;;20.50;50.50;;;;;;5136370;28;20055;-10
2022/10/15 08:54:05;;;;;;;1.80;1.70;;;20.50;50.40;;;;;;5136732;28;20051;-10
2022/10/15 08:56:35;;;;;;;1.60;1.50;;;20.50;50.40;;;;;;5136158;28;20047;-11
2022/10/15 08:59:21;;;;;;;2.10;1.90;;;20.50;50.50;;;;;;5136185;28;20050;-10
2022/10/15 09:01:52;;;;;;;3.03;1.80;;;20.40;50.50;;;;;;5136238;28;20562;-10
2022/10/15 09:04:26;;;;;;;2.45;2.20;;;20.50;50.40;;;;;;5136602;28;20047;-10
2022/10/15 09:07:02;;;;;;;1.85;1.75;;;20.50;50.50;;;;;;5135971;28;20043;-11
2022/10/15 09:09:52;;;;;;;2.85;2.03;;;20.50;50.90;;;;;;5135888;28;20471;-11
2022/10/15 09:12:41;;;;;;;2.47;2.15;;;20.50;50.30;;;;;;5135862;28;20051;-10
2022/10/15 09:15:13;;;;;;;1.95;1.83;;;20.50;50.40;;;;;;5135824;28;20047;-10
2022/10/15 09:17:41;;;;;;;2.10;1.77;;;20.50;50.40;;;;;;5136185;28;20171;-10
2022/10/15 09:20:35;;;;;;;2.20;2.00;;;20.50;50.40;;;;;;5136000;28;20106;-10
2022/10/15 09:23:01;;;;;;;2.13;1.92;;;20.60;50.30;;;;;;5135727;28;20138;-10
2022/10/15 09:25:35;;;;;;;2.28;2.08;;;20.60;50.30;;;;;;5136398;28;20161;-10
2022/10/15 09:28:09;;;;;;;1.90;1.80;;;20.60;50.20;;;;;;5136044;28;20090;-11
2022/10/15 09:30:53;;;;;;;2.20;2.00;;;20.60;50.80;;;;;;5135588;28;20452;-10
2022/10/15 09:33:34;;;;;;;1.75;1.65;;;20.50;50.20;;;;;;5135813;28;20070;-10
2022/10/15 09:36:15;;;;;;;1.95;1.77;;;20.60;50.30;;;;;;5135703;28;20047;-10
2022/10/15 09:38:58;;;;;;;2.13;1.83;;;20.60;50.30;;;;;;5135982;27;20051;-11
2022/10/15 09:41:52;;;;;;;2.25;1.88;;;20.60;50.20;;;;;;5135405;28;20047;-10
2022/10/15 09:44:21;;;;;;;1.98;1.88;;;20.60;50.30;;;;;;5096781;28;20043;-10
2022/10/15 09:46:49;;;;;;;2.20;2.00;;;20.60;50.20;;;;;;5135075;27;20062;-11
2022/10/15 09:49:18;;;;;;;2.45;2.08;;;20.60;50.20;;;;;;5135184;28;20525;-10
2022/10/15 09:52:10;;;;;;;1.70;1.60;;;20.60;50.20;;;;;;5135759;28;20092;-10
2022/10/15 09:54:51;;;;;;;1.70;1.60;;;20.60;50.20;;;;;;5135464;28;20054;-10
2022/10/15 09:57:20;;;;;;;1.85;1.75;;;20.60;50.20;;;;;;5135020;28;20384;-10
2022/10/15 09:59:59;;;;;;;1.92;1.73;;;20.60;50.10;;;;;;5135815;28;20134;-11
2022/10/15 10:02:25;;;;;;;2.13;1.90;;;20.60;50.10;;;;;;5135195;28;20043;-10
2022/10/15 10:04:53;;;;;;;2.33;2.00;;;20.60;50.20;;;;;;5135254;28;20047;-10
2022/10/15 10:07:45;;;;;;;1.90;1.80;;;20.60;50.20;;;;;;5134999;28;20062;-10
2022/10/15 10:10:24;;;;;;;1.90;1.80;;;20.60;50.10;;;;;;5131318;28;20051;-10
2022/10/15 10:12:51;;;;;;;1.98;1.75;;;20.60;50.10;;;;;;5135477;28;20049;-10
2022/10/15 10:15:35;;;;;;;1.80;1.70;;;20.60;50.10;;;;;;5135232;28;20059;-10
2022/10/15 10:18:04;;;;;;;2.17;1.98;;;20.60;50.20;;;;;;5134846;28;20111;-10
2022/10/15 10:20:31;;;;;;;1.88;1.77;;;20.60;50.20;;;;;;5134624;28;20058;-10
2022/10/15 10:22:58;;;;;;;2.28;2.08;;;20.60;50.20;;;;;;5134751;28;20054;-11
2022/10/15 10:25:29;;;;;;;1.90;1.80;;;20.60;50.10;;;;;;5135199;28;20049;-10
2022/10/15 10:28:10;;;;;;;;;;;20.60;50.10;;;;;;5135626;28;20131;-10
2022/10/15 10:30:45;;;;;;;1.95;1.85;;;20.60;50.10;;;;;;5134739;28;19964;-10
2022/10/15 10:33:14;;;;;;;2.10;2.00;;;20.60;50.10;;;;;;5134573;28;20095;-10
2022/10/15 10:35:49;;;;;;;1.73;1.63;;;20.60;50.00;;;;;;5134704;28;20075;-10
2022/10/15 10:38:32;;;;;;;2.10;1.90;;;20.70;50.00;;;;;;5134744;28;20047;-11
2022/10/15 10:41:08;;;;;;;1.92;1.83;;;20.70;50.00;;;;;;5134560;28;20128;-10
2022/10/15 10:43:39;;;;;;;2.08;1.90;;;20.70;50.00;;;;;;5134895;28;20062;-10
2022/10/15 10:46:05;;;;;;;;;;;20.70;50.00;;;;;;5135213;28;20495;-10
2022/10/15 10:48:41;;;;;;;2.30;2.10;;;20.70;50.00;;;;;;5133673;27;19923;-11
2022/10/15 10:51:12;;;;;;;1.73;1.60;;;20.70;50.00;;;;;;5134480;28;20051;-10
2022/10/15 10:53:47;;;;;;;1.37;1.27;;;20.70;50.00;;;;;;5134855;28;20050;-10
2022/10/15 10:56:14;;;;;;;1.77;1.67;;;20.70;50.00;;;;;;5134426;28;20410;-10
2022/10/15 10:58:40;;;;;;;2.10;1.90;;;20.70;49.90;;;;;;5134071;28;20059;-10
2022/10/15 11:01:11;;;;;;;2.33;2.13;;;20.70;50.00;;;;;;5134551;28;20494;-10
2022/10/15 11:03:40;;;;;;;1.52;1.42;;;20.70;50.10;;;;;;5134628;28;20129;-10
2022/10/15 11:06:22;;;;;;;2.22;2.05;;;20.70;50.10;;;;;;5134589;28;20069;-10
2022/10/15 11:09:06;;;;;;;1.90;1.80;;;20.70;50.00;;;;;;5134127;28;20066;-11
2022/10/15 11:11:35;;;;;;;2.35;2.10;;;20.70;49.90;;;;;;5134773;28;20043;-10
2022/10/15 11:14:57;;;;;;;1.65;1.55;;;20.70;49.90;;;;;;5134006;28;20055;-10
2022/10/15 11:17:39;;;;;;;1.90;1.80;;;20.80;49.90;;;;;;5050711;28;20493;-10
2022/10/15 11:20:27;;;;;;;2.08;1.88;;;20.80;49.90;;;;;;5127374;28;20047;-10
2022/10/15 11:23:03;;;;;;;2.05;1.85;;;20.80;49.80;;;;;;5134022;28;20050;-10
2022/10/15 11:26:01;;;;;;;2.10;1.90;;;20.80;49.80;;;;;;5134063;28;20055;-10
2022/10/15 11:28:48;;;;;;;2.40;2.20;;;20.80;49.70;;;;;;5133594;28;20047;-10
2022/10/15 11:31:37;;;;;;;2.40;2.20;;;20.80;49.70;;;;;;5134008;28;20497;-10
2022/10/15 11:34:12;;;;;;;2.55;2.00;;;20.80;49.70;;;;;;5133850;28;20051;-10
2022/10/15 11:36:38;;;;;;;3.05;2.30;;;20.80;49.70;;;;;;5133729;28;20059;-10
2022/10/15 11:39:41;;;;;;;2.00;1.80;;;20.90;49.70;;;;;;5133470;28;20379;-10
2022/10/15 11:42:27;;;;;;;2.08;1.80;;;20.90;49.60;;;;;;5133801;28;20498;-10
2022/10/15 11:45:14;;;;;;;1.73;1.63;;;20.90;49.50;;;;;;5133189;28;20051;-10
2022/10/15 11:48:14;;;;;;;1.90;1.80;;;20.90;49.60;;;;;;5133283;28;20490;-11
2022/10/15 11:50:57;;;;;;;2.35;2.15;;;20.90;49.60;;;;;;5133676;28;20065;-10
2022/10/15 11:53:32;;;;;;;1.85;1.67;;;20.80;49.60;;;;;;5133991;28;20070;-10
2022/10/15 11:56:11;;;;;;;2.00;1.90;;;20.90;49.60;;;;;;5133600;28;20078;-10
2022/10/15 11:58:43;;;;;;;2.63;1.80;;;20.90;49.70;;;;;;5133774;28;20051;-10
2022/10/15 12:01:23;;;;;;;2.20;2.00;;;20.80;49.60;;;;;;5135992;27;20051;-10
2022/10/15 12:03:55;;;;;;;3.13;1.85;;;20.90;49.60;;;;;;5137232;28;20050;-10
2022/10/15 12:06:28;;;;;;;2.50;2.03;;;20.80;49.60;;;;;;5137599;28;20482;-10
2022/10/15 12:08:56;;;;;;;2.28;2.08;;;20.90;49.60;;;;;;5137400;28;20474;-10
2022/10/15 12:12:02;;;;;;;1.90;1.80;;;20.80;49.60;;;;;;5137050;28;20075;-10
2022/10/15 12:14:38;;;;;;;2.03;1.88;;;20.80;49.70;;;;;;5137171;28;20051;-10
2022/10/15 12:17:21;;;;;;;2.55;2.13;;;20.80;49.70;;;;;;5136894;28;20077;-10
2022/10/15 12:19:55;;;;;;;2.42;2.22;;;20.80;49.80;;;;;;5136426;28;20082;-10
2022/10/15 12:22:36;;;;;;;2.22;2.03;;;20.80;49.80;;;;;;5137324;28;20051;-10
2022/10/15 12:25:02;;;;;;;;;;;20.80;49.80;;;;;;5137374;28;20050;-10
2022/10/15 12:27:35;;;;;;;2.33;2.13;;;20.80;49.80;;;;;;5136651;28;19915;-10
2022/10/15 12:30:06;;;;;;;2.10;1.95;;;20.80;49.70;;;;;;5136708;28;20138;-10
2022/10/15 12:32:41;;;;;;;2.42;2.17;;;20.80;49.70;;;;;;5137377;28;20049;-10
2022/10/15 12:35:13;;;;;;;1.92;1.80;;;20.80;49.70;;;;;;5136781;28;20082;-10
2022/10/15 12:37:39;;;;;;;2.42;2.00;;;20.80;49.80;;;;;;5137089;28;20047;-11
2022/10/15 12:40:20;;;;;;;2.60;2.08;;;20.80;49.70;;;;;;5136595;28;20051;-10
2022/10/15 12:42:54;;;;;;;1.60;1.50;;;20.80;49.60;;;;;;5136929;28;20053;-10
2022/10/15 12:45:29;;;;;;;2.00;1.83;;;20.80;49.60;;;;;;5136445;28;20143;-10
2022/10/15 12:48:15;;;;;;;1.90;1.80;;;20.80;49.50;;;;;;5136633;28;20055;-11
2022/10/15 12:50:42;;;;;;;2.05;1.85;;;20.80;49.60;;;;;;5136260;28;20426;-10
2022/10/15 12:53:28;;;;;;;1.90;1.70;;;20.80;49.50;;;;;;5136702;28;20061;-10
2022/10/15 12:56:16;;;;;;;2.05;1.85;;;20.90;49.60;;;;;;5136770;28;20062;-10
2022/10/15 12:58:47;;;;;;;1.90;1.80;;;20.90;49.60;;;;;;5136266;28;20047;-10
2022/10/15 13:01:12;;;;;;;2.28;2.08;;;20.80;50.10;;;;;;5136442;28;20403;-10
2022/10/15 13:03:43;;;;;;;2.38;1.83;;;20.80;49.60;;;;;;5136508;28;20051;-11
2022/10/15 13:06:24;;;;;;;1.95;1.75;;;20.80;49.70;;;;;;5136335;28;20055;-10
2022/10/15 13:09:20;;;;;;;1.40;1.30;;;20.80;49.80;;;;;;5135930;28;20184;-10
2022/10/15 13:11:53;;;;;;;2.13;1.92;;;20.80;49.70;;;;;;5135672;27;20054;-10
2022/10/15 13:14:46;;;;;;;2.80;1.98;;;20.80;49.70;;;;;;5136079;28;20051;-10